sensor_id;sensor_type;location;lat;lon;timestamp;temperature;humidity
47532;DHT22;33273;52.254;7.988;2023-05-07T00:00:59;12.30;98.70
47532;DHT22;33273;52.254;7.988;2023-05-07T00:03:25;12.30;99.30
47532;DHT22;33273;52.254;7.988;2023-05-07T00:05:52;12.30;99.60
47532;DHT22;33273;52.254;7.988;2023-05-07T00:08:19;12.30;99.40
47532;DHT22;33273;52.254;7.988;2023-05-07T00:10:46;12.30;99.60
47532;DHT22;33273;52.254;7.988;2023-05-07T00:13:13;12.20;99.80
47532;DHT22;33273;52.254;7.988;2023-05-07T00:15:39;12.20;99.80
47532;DHT22;33273;52.254;7.988;2023-05-07T00:18:05;12.30;99.30
47532;DHT22;33273;52.254;7.988;2023-05-07T00:20:31;12.20;99.50
47532;DHT22;33273;52.254;7.988;2023-05-07T00:22:57;12.30;99.00
47532;DHT22;33273;52.254;7.988;2023-05-07T00:25:23;12.30;98.50
47532;DHT22;33273;52.254;7.988;2023-05-07T00:27:49;12.20;98.50
47532;DHT22;33273;52.254;7.988;2023-05-07T00:30:17;12.20;98.70
47532;DHT22;33273;52.254;7.988;2023-05-07T00:32:42;12.20;98.70
47532;DHT22;33273;52.254;7.988;2023-05-07T00:35:11;12.10;99.00
47532;DHT22;33273;52.254;7.988;2023-05-07T00:37:37;12.10;99.40
47532;DHT22;33273;52.254;7.988;2023-05-07T00:40:04;12.10;98.80
47532;DHT22;33273;52.254;7.988;2023-05-07T00:42:32;12.00;99.00
47532;DHT22;33273;52.254;7.988;2023-05-07T00:44:59;12.00;99.10
47532;DHT22;33273;52.254;7.988;2023-05-07T00:47:25;12.00;98.80
47532;DHT22;33273;52.254;7.988;2023-05-07T00:49:51;12.00;98.40
47532;DHT22;33273;52.254;7.988;2023-05-07T00:52:19;11.90;98.70
47532;DHT22;33273;52.254;7.988;2023-05-07T00:54:45;11.90;99.80
47532;DHT22;33273;52.254;7.988;2023-05-07T00:57:11;11.80;99.40
47532;DHT22;33273;52.254;7.988;2023-05-07T00:59:38;11.80;99.60
47532;DHT22;33273;52.254;7.988;2023-05-07T01:02:05;11.80;99.70
47532;DHT22;33273;52.254;7.988;2023-05-07T01:04:31;11.80;99.90
47532;DHT22;33273;52.254;7.988;2023-05-07T01:06:59;11.80;99.40
47532;DHT22;33273;52.254;7.988;2023-05-07T01:09:26;11.70;99.80
47532;DHT22;33273;52.254;7.988;2023-05-07T01:11:54;11.70;99.90
47532;DHT22;33273;52.254;7.988;2023-05-07T01:14:21;11.60;99.90
47532;DHT22;33273;52.254;7.988;2023-05-07T01:16:49;11.60;99.90
47532;DHT22;33273;52.254;7.988;2023-05-07T01:19:18;11.60;99.90
47532;DHT22;33273;52.254;7.988;2023-05-07T01:21:49;11.60;99.90
47532;DHT22;33273;52.254;7.988;2023-05-07T01:24:18;11.60;99.90
47532;DHT22;33273;52.254;7.988;2023-05-07T01:26:44;11.60;99.90
47532;DHT22;33273;52.254;7.988;2023-05-07T01:29:14;11.60;99.90
47532;DHT22;33273;52.254;7.988;2023-05-07T01:31:41;11.60;99.90
47532;DHT22;33273;52.254;7.988;2023-05-07T01:34:08;11.60;99.90
47532;DHT22;33273;52.254;7.988;2023-05-07T01:36:38;11.50;99.90
47532;DHT22;33273;52.254;7.988;2023-05-07T01:39:05;11.60;99.90
47532;DHT22;33273;52.254;7.988;2023-05-07T01:41:32;11.50;99.90
47532;DHT22;33273;52.254;7.988;2023-05-07T01:43:59;11.50;99.90
47532;DHT22;33273;52.254;7.988;2023-05-07T01:46:27;11.50;99.90
47532;DHT22;33273;52.254;7.988;2023-05-07T01:48:53;11.50;99.90
47532;DHT22;33273;52.254;7.988;2023-05-07T01:51:19;11.40;99.90
47532;DHT22;33273;52.254;7.988;2023-05-07T01:53:48;11.40;99.90
47532;DHT22;33273;52.254;7.988;2023-05-07T01:56:18;11.30;99.90
47532;DHT22;33273;52.254;7.988;2023-05-07T01:58:46;11.30;99.90
47532;DHT22;33273;52.254;7.988;2023-05-07T02:01:13;11.30;99.90
47532;DHT22;33273;52.254;7.988;2023-05-07T02:03:40;11.40;99.90
47532;DHT22;33273;52.254;7.988;2023-05-07T02:06:14;11.30;99.90
47532;DHT22;33273;52.254;7.988;2023-05-07T02:08:40;11.30;99.90
47532;DHT22;33273;52.254;7.988;2023-05-07T02:11:06;11.30;99.90
47532;DHT22;33273;52.254;7.988;2023-05-07T02:13:34;11.20;99.90
47532;DHT22;33273;52.254;7.988;2023-05-07T02:16:00;11.20;99.90
47532;DHT22;33273;52.254;7.988;2023-05-07T02:18:27;11.30;99.90
47532;DHT22;33273;52.254;7.988;2023-05-07T02:20:53;11.30;99.90
47532;DHT22;33273;52.254;7.988;2023-05-07T02:23:19;11.20;99.90
47532;DHT22;33273;52.254;7.988;2023-05-07T02:25:45;11.20;99.90
47532;DHT22;33273;52.254;7.988;2023-05-07T02:28:11;11.20;99.90
47532;DHT22;33273;52.254;7.988;2023-05-07T02:30:47;11.20;99.90
47532;DHT22;33273;52.254;7.988;2023-05-07T02:33:13;11.20;99.90
47532;DHT22;33273;52.254;7.988;2023-05-07T02:35:40;11.10;99.90
47532;DHT22;33273;52.254;7.988;2023-05-07T02:38:06;11.00;99.90
47532;DHT22;33273;52.254;7.988;2023-05-07T02:40:33;11.10;99.90
47532;DHT22;33273;52.254;7.988;2023-05-07T02:42:59;11.00;99.90
47532;DHT22;33273;52.254;7.988;2023-05-07T02:45:25;11.00;99.90
47532;DHT22;33273;52.254;7.988;2023-05-07T02:47:53;11.00;99.90
47532;DHT22;33273;52.254;7.988;2023-05-07T02:50:20;10.90;99.90
47532;DHT22;33273;52.254;7.988;2023-05-07T02:52:46;10.90;99.90
47532;DHT22;33273;52.254;7.988;2023-05-07T02:55:13;10.90;99.90
47532;DHT22;33273;52.254;7.988;2023-05-07T02:57:39;10.90;99.90
47532;DHT22;33273;52.254;7.988;2023-05-07T03:00:16;10.90;99.90
47532;DHT22;33273;52.254;7.988;2023-05-07T03:02:49;10.90;99.90
47532;DHT22;33273;52.254;7.988;2023-05-07T03:05:15;10.80;99.90
47532;DHT22;33273;52.254;7.988;2023-05-07T03:07:41;10.80;99.90
47532;DHT22;33273;52.254;7.988;2023-05-07T03:10:11;10.80;99.90
47532;DHT22;33273;52.254;7.988;2023-05-07T03:12:37;10.80;99.90
47532;DHT22;33273;52.254;7.988;2023-05-07T03:15:04;10.80;99.90
47532;DHT22;33273;52.254;7.988;2023-05-07T03:17:30;10.80;99.90
47532;DHT22;33273;52.254;7.988;2023-05-07T03:19:56;10.90;99.90
47532;DHT22;33273;52.254;7.988;2023-05-07T03:22:23;10.80;99.90
47532;DHT22;33273;52.254;7.988;2023-05-07T03:24:48;10.80;99.90
47532;DHT22;33273;52.254;7.988;2023-05-07T03:27:14;10.80;99.90
47532;DHT22;33273;52.254;7.988;2023-05-07T03:29:41;10.80;99.90
47532;DHT22;33273;52.254;7.988;2023-05-07T03:32:08;10.80;99.90
47532;DHT22;33273;52.254;7.988;2023-05-07T03:34:35;10.70;99.90
47532;DHT22;33273;52.254;7.988;2023-05-07T03:37:00;10.70;99.90
47532;DHT22;33273;52.254;7.988;2023-05-07T03:39:26;10.60;99.90
47532;DHT22;33273;52.254;7.988;2023-05-07T03:41:52;10.60;99.90
47532;DHT22;33273;52.254;7.988;2023-05-07T03:44:18;10.60;99.90
47532;DHT22;33273;52.254;7.988;2023-05-07T03:46:45;10.60;99.90
47532;DHT22;33273;52.254;7.988;2023-05-07T03:49:11;10.50;99.90
47532;DHT22;33273;52.254;7.988;2023-05-07T03:51:37;10.60;99.90
47532;DHT22;33273;52.254;7.988;2023-05-07T03:54:05;10.50;99.90
47532;DHT22;33273;52.254;7.988;2023-05-07T03:56:32;10.50;99.90
47532;DHT22;33273;52.254;7.988;2023-05-07T03:59:00;10.50;99.90
47532;DHT22;33273;52.254;7.988;2023-05-07T04:01:27;10.40;99.90
47532;DHT22;33273;52.254;7.988;2023-05-07T04:03:53;10.50;99.90
47532;DHT22;33273;52.254;7.988;2023-05-07T04:06:19;10.50;99.90
47532;DHT22;33273;52.254;7.988;2023-05-07T04:08:47;10.50;99.90
47532;DHT22;33273;52.254;7.988;2023-05-07T04:11:13;10.50;99.90
47532;DHT22;33273;52.254;7.988;2023-05-07T04:13:39;10.50;99.90
47532;DHT22;33273;52.254;7.988;2023-05-07T04:16:08;10.60;99.90
47532;DHT22;33273;52.254;7.988;2023-05-07T04:18:35;10.60;99.90
47532;DHT22;33273;52.254;7.988;2023-05-07T04:21:01;10.50;99.90
47532;DHT22;33273;52.254;7.988;2023-05-07T04:23:27;10.50;99.90
47532;DHT22;33273;52.254;7.988;2023-05-07T04:25:54;10.50;99.90
47532;DHT22;33273;52.254;7.988;2023-05-07T04:28:25;10.40;99.90
47532;DHT22;33273;52.254;7.988;2023-05-07T04:30:51;10.50;99.90
47532;DHT22;33273;52.254;7.988;2023-05-07T04:33:19;10.50;99.90
47532;DHT22;33273;52.254;7.988;2023-05-07T04:35:46;10.50;99.90
47532;DHT22;33273;52.254;7.988;2023-05-07T04:38:13;10.50;99.90
47532;DHT22;33273;52.254;7.988;2023-05-07T04:40:38;10.40;99.90
47532;DHT22;33273;52.254;7.988;2023-05-07T04:43:06;10.40;99.90
47532;DHT22;33273;52.254;7.988;2023-05-07T04:45:39;10.50;99.90
47532;DHT22;33273;52.254;7.988;2023-05-07T04:48:09;10.50;99.90
47532;DHT22;33273;52.254;7.988;2023-05-07T04:50:36;10.50;99.90
47532;DHT22;33273;52.254;7.988;2023-05-07T04:53:03;10.50;99.90
47532;DHT22;33273;52.254;7.988;2023-05-07T04:55:29;10.50;99.90
47532;DHT22;33273;52.254;7.988;2023-05-07T04:57:55;10.50;99.90
47532;DHT22;33273;52.254;7.988;2023-05-07T05:00:22;10.50;99.90
47532;DHT22;33273;52.254;7.988;2023-05-07T05:02:50;10.50;99.90
47532;DHT22;33273;52.254;7.988;2023-05-07T05:05:19;10.50;99.90
47532;DHT22;33273;52.254;7.988;2023-05-07T05:07:46;10.50;99.90
47532;DHT22;33273;52.254;7.988;2023-05-07T05:10:12;10.50;99.90
47532;DHT22;33273;52.254;7.988;2023-05-07T05:12:40;10.50;99.90
47532;DHT22;33273;52.254;7.988;2023-05-07T05:15:06;10.50;99.90
47532;DHT22;33273;52.254;7.988;2023-05-07T05:17:33;10.50;99.90
47532;DHT22;33273;52.254;7.988;2023-05-07T05:20:02;10.50;99.90
47532;DHT22;33273;52.254;7.988;2023-05-07T05:22:28;10.50;99.90
47532;DHT22;33273;52.254;7.988;2023-05-07T05:24:57;10.60;99.90
47532;DHT22;33273;52.254;7.988;2023-05-07T05:27:24;10.60;99.90
47532;DHT22;33273;52.254;7.988;2023-05-07T05:29:50;10.60;99.90
47532;DHT22;33273;52.254;7.988;2023-05-07T05:32:16;10.60;99.90
47532;DHT22;33273;52.254;7.988;2023-05-07T05:34:42;10.70;99.90
47532;DHT22;33273;52.254;7.988;2023-05-07T05:37:08;10.80;99.90
47532;DHT22;33273;52.254;7.988;2023-05-07T05:39:36;10.80;99.90
47532;DHT22;33273;52.254;7.988;2023-05-07T05:42:02;10.90;99.90
47532;DHT22;33273;52.254;7.988;2023-05-07T05:44:28;11.00;99.90
47532;DHT22;33273;52.254;7.988;2023-05-07T05:46:54;11.00;99.90
47532;DHT22;33273;52.254;7.988;2023-05-07T05:49:21;11.10;99.90
47532;DHT22;33273;52.254;7.988;2023-05-07T05:51:48;11.10;99.90
47532;DHT22;33273;52.254;7.988;2023-05-07T05:54:14;11.20;99.90
47532;DHT22;33273;52.254;7.988;2023-05-07T05:56:41;11.10;99.90
47532;DHT22;33273;52.254;7.988;2023-05-07T05:59:07;11.20;99.90
47532;DHT22;33273;52.254;7.988;2023-05-07T06:01:33;11.20;99.90
47532;DHT22;33273;52.254;7.988;2023-05-07T06:04:01;11.30;99.90
47532;DHT22;33273;52.254;7.988;2023-05-07T06:06:28;11.30;99.90
47532;DHT22;33273;52.254;7.988;2023-05-07T06:08:54;11.40;99.90
47532;DHT22;33273;52.254;7.988;2023-05-07T06:11:26;11.40;99.90
47532;DHT22;33273;52.254;7.988;2023-05-07T06:13:52;11.40;99.90
47532;DHT22;33273;52.254;7.988;2023-05-07T06:16:20;11.50;99.90
47532;DHT22;33273;52.254;7.988;2023-05-07T06:18:46;11.60;99.90
47532;DHT22;33273;52.254;7.988;2023-05-07T06:21:13;11.60;99.90
47532;DHT22;33273;52.254;7.988;2023-05-07T06:23:40;11.60;99.90
47532;DHT22;33273;52.254;7.988;2023-05-07T06:26:07;11.80;99.90
47532;DHT22;33273;52.254;7.988;2023-05-07T06:28:38;11.80;99.30
47532;DHT22;33273;52.254;7.988;2023-05-07T06:31:19;11.80;98.50
47532;DHT22;33273;52.254;7.988;2023-05-07T06:34:10;11.90;97.40
47532;DHT22;33273;52.254;7.988;2023-05-07T06:36:40;11.90;96.60
47532;DHT22;33273;52.254;7.988;2023-05-07T06:39:35;11.90;97.50
47532;DHT22;33273;52.254;7.988;2023-05-07T06:42:03;12.00;95.70
47532;DHT22;33273;52.254;7.988;2023-05-07T06:44:32;12.10;95.80
47532;DHT22;33273;52.254;7.988;2023-05-07T06:47:10;12.20;95.50
47532;DHT22;33273;52.254;7.988;2023-05-07T06:49:38;12.20;95.10
47532;DHT22;33273;52.254;7.988;2023-05-07T06:52:24;12.10;92.60
47532;DHT22;33273;52.254;7.988;2023-05-07T06:54:50;12.30;93.40
47532;DHT22;33273;52.254;7.988;2023-05-07T06:57:19;12.30;93.10
47532;DHT22;33273;52.254;7.988;2023-05-07T07:00:05;12.30;92.70
47532;DHT22;33273;52.254;7.988;2023-05-07T07:02:41;12.30;92.70
47532;DHT22;33273;52.254;7.988;2023-05-07T07:05:09;12.20;92.50
47532;DHT22;33273;52.254;7.988;2023-05-07T07:07:35;12.20;93.00
47532;DHT22;33273;52.254;7.988;2023-05-07T07:10:01;12.30;93.30
47532;DHT22;33273;52.254;7.988;2023-05-07T07:12:29;12.30;91.00
47532;DHT22;33273;52.254;7.988;2023-05-07T07:14:55;12.30;91.80
47532;DHT22;33273;52.254;7.988;2023-05-07T07:17:22;12.30;91.80
47532;DHT22;33273;52.254;7.988;2023-05-07T07:19:48;12.50;94.00
47532;DHT22;33273;52.254;7.988;2023-05-07T07:22:14;12.70;90.90
47532;DHT22;33273;52.254;7.988;2023-05-07T07:24:40;12.80;87.30
47532;DHT22;33273;52.254;7.988;2023-05-07T07:27:09;12.90;88.90
47532;DHT22;33273;52.254;7.988;2023-05-07T07:29:35;13.00;85.80
47532;DHT22;33273;52.254;7.988;2023-05-07T07:32:02;12.90;85.70
47532;DHT22;33273;52.254;7.988;2023-05-07T07:34:28;12.90;85.50
47532;DHT22;33273;52.254;7.988;2023-05-07T07:36:54;12.90;84.60
47532;DHT22;33273;52.254;7.988;2023-05-07T07:39:20;12.90;85.50
47532;DHT22;33273;52.254;7.988;2023-05-07T07:41:49;12.90;87.60
47532;DHT22;33273;52.254;7.988;2023-05-07T07:44:16;12.80;86.80
47532;DHT22;33273;52.254;7.988;2023-05-07T07:46:48;12.90;87.30
47532;DHT22;33273;52.254;7.988;2023-05-07T07:49:14;13.00;85.00
47532;DHT22;33273;52.254;7.988;2023-05-07T07:51:41;13.00;85.30
47532;DHT22;33273;52.254;7.988;2023-05-07T07:54:09;13.00;85.40
47532;DHT22;33273;52.254;7.988;2023-05-07T07:56:35;13.10;86.00
47532;DHT22;33273;52.254;7.988;2023-05-07T07:59:03;13.00;84.40
47532;DHT22;33273;52.254;7.988;2023-05-07T08:01:30;13.00;86.10
47532;DHT22;33273;52.254;7.988;2023-05-07T08:03:57;13.10;83.70
47532;DHT22;33273;52.254;7.988;2023-05-07T08:06:27;13.00;84.30
47532;DHT22;33273;52.254;7.988;2023-05-07T08:08:54;13.00;84.50
47532;DHT22;33273;52.254;7.988;2023-05-07T08:11:21;13.10;85.10
47532;DHT22;33273;52.254;7.988;2023-05-07T08:13:48;13.10;85.00
47532;DHT22;33273;52.254;7.988;2023-05-07T08:16:14;13.20;83.20
47532;DHT22;33273;52.254;7.988;2023-05-07T08:18:41;13.20;85.10
47532;DHT22;33273;52.254;7.988;2023-05-07T08:21:07;13.40;84.90
47532;DHT22;33273;52.254;7.988;2023-05-07T08:23:33;13.60;81.30
47532;DHT22;33273;52.254;7.988;2023-05-07T08:26:00;13.30;80.40
47532;DHT22;33273;52.254;7.988;2023-05-07T08:28:26;13.40;81.60
47532;DHT22;33273;52.254;7.988;2023-05-07T08:30:52;13.40;80.80
47532;DHT22;33273;52.254;7.988;2023-05-07T08:33:19;13.40;81.70
47532;DHT22;33273;52.254;7.988;2023-05-07T08:35:45;13.50;84.20
47532;DHT22;33273;52.254;7.988;2023-05-07T08:38:14;14.00;81.90
47532;DHT22;33273;52.254;7.988;2023-05-07T08:40:40;14.10;77.60
47532;DHT22;33273;52.254;7.988;2023-05-07T08:43:14;14.10;74.10
47532;DHT22;33273;52.254;7.988;2023-05-07T08:45:43;14.00;76.80
47532;DHT22;33273;52.254;7.988;2023-05-07T08:48:15;13.80;77.10
47532;DHT22;33273;52.254;7.988;2023-05-07T08:50:44;13.80;76.80
47532;DHT22;33273;52.254;7.988;2023-05-07T08:53:10;13.90;78.40
47532;DHT22;33273;52.254;7.988;2023-05-07T08:55:37;14.00;78.30
47532;DHT22;33273;52.254;7.988;2023-05-07T08:58:03;14.20;74.40
47532;DHT22;33273;52.254;7.988;2023-05-07T09:00:31;14.20;74.10
47532;DHT22;33273;52.254;7.988;2023-05-07T09:03:00;14.30;74.90
47532;DHT22;33273;52.254;7.988;2023-05-07T09:05:26;14.20;74.20
47532;DHT22;33273;52.254;7.988;2023-05-07T09:07:52;14.40;72.90
47532;DHT22;33273;52.254;7.988;2023-05-07T09:10:20;14.60;74.10
47532;DHT22;33273;52.254;7.988;2023-05-07T09:12:47;14.60;70.40
47532;DHT22;33273;52.254;7.988;2023-05-07T09:15:15;14.60;71.70
47532;DHT22;33273;52.254;7.988;2023-05-07T09:17:43;14.60;70.10
47532;DHT22;33273;52.254;7.988;2023-05-07T09:20:09;14.60;71.10
47532;DHT22;33273;52.254;7.988;2023-05-07T09:22:40;14.80;72.60
47532;DHT22;33273;52.254;7.988;2023-05-07T09:25:10;14.90;72.00
47532;DHT22;33273;52.254;7.988;2023-05-07T09:27:38;14.80;69.70
47532;DHT22;33273;52.254;7.988;2023-05-07T09:30:07;14.90;69.30
47532;DHT22;33273;52.254;7.988;2023-05-07T09:32:35;15.10;71.50
47532;DHT22;33273;52.254;7.988;2023-05-07T09:35:04;15.10;69.20
47532;DHT22;33273;52.254;7.988;2023-05-07T09:37:31;15.20;67.00
47532;DHT22;33273;52.254;7.988;2023-05-07T09:39:59;15.10;67.30
47532;DHT22;33273;52.254;7.988;2023-05-07T09:42:27;15.20;68.80
47532;DHT22;33273;52.254;7.988;2023-05-07T09:44:55;15.20;66.40
47532;DHT22;33273;52.254;7.988;2023-05-07T09:47:24;15.30;67.50
47532;DHT22;33273;52.254;7.988;2023-05-07T09:49:56;15.20;66.20
47532;DHT22;33273;52.254;7.988;2023-05-07T09:52:24;15.10;66.60
47532;DHT22;33273;52.254;7.988;2023-05-07T09:54:57;15.20;67.00
47532;DHT22;33273;52.254;7.988;2023-05-07T09:57:27;15.30;66.40
47532;DHT22;33273;52.254;7.988;2023-05-07T09:59:59;15.40;66.80
47532;DHT22;33273;52.254;7.988;2023-05-07T10:02:31;15.50;65.40
47532;DHT22;33273;52.254;7.988;2023-05-07T10:05:00;15.70;66.20
47532;DHT22;33273;52.254;7.988;2023-05-07T10:07:30;15.80;63.10
47532;DHT22;33273;52.254;7.988;2023-05-07T10:10:03;15.90;63.20
47532;DHT22;33273;52.254;7.988;2023-05-07T10:12:35;15.90;63.00
47532;DHT22;33273;52.254;7.988;2023-05-07T10:15:11;15.90;63.80
47532;DHT22;33273;52.254;7.988;2023-05-07T10:17:40;16.00;61.40
47532;DHT22;33273;52.254;7.988;2023-05-07T10:20:09;16.10;62.30
47532;DHT22;33273;52.254;7.988;2023-05-07T10:22:45;16.20;61.60
47532;DHT22;33273;52.254;7.988;2023-05-07T10:25:23;16.20;60.80
47532;DHT22;33273;52.254;7.988;2023-05-07T10:27:52;16.20;62.90
47532;DHT22;33273;52.254;7.988;2023-05-07T10:33:31;16.50;62.20
47532;DHT22;33273;52.254;7.988;2023-05-07T10:36:00;16.60;59.20
47532;DHT22;33273;52.254;7.988;2023-05-07T10:38:31;16.60;59.50
47532;DHT22;33273;52.254;7.988;2023-05-07T10:40:59;16.50;59.30
47532;DHT22;33273;52.254;7.988;2023-05-07T10:43:25;16.60;59.30
47532;DHT22;33273;52.254;7.988;2023-05-07T10:46:26;16.40;59.10
47532;DHT22;33273;52.254;7.988;2023-05-07T10:49:07;16.20;60.30
47532;DHT22;33273;52.254;7.988;2023-05-07T10:51:42;16.30;61.40
47532;DHT22;33273;52.254;7.988;2023-05-07T10:54:19;16.30;60.80
47532;DHT22;33273;52.254;7.988;2023-05-07T10:56:53;16.40;61.50
47532;DHT22;33273;52.254;7.988;2023-05-07T10:59:32;16.40;59.40
47532;DHT22;33273;52.254;7.988;2023-05-07T11:02:14;16.40;59.30
47532;DHT22;33273;52.254;7.988;2023-05-07T11:07:57;16.70;62.00
47532;DHT22;33273;52.254;7.988;2023-05-07T11:10:51;17.00;58.50
47532;DHT22;33273;52.254;7.988;2023-05-07T11:13:48;17.00;56.90
47532;DHT22;33273;52.254;7.988;2023-05-07T11:16:37;17.20;56.50
47532;DHT22;33273;52.254;7.988;2023-05-07T11:19:17;17.40;55.30
47532;DHT22;33273;52.254;7.988;2023-05-07T11:21:47;17.50;55.00
47532;DHT22;33273;52.254;7.988;2023-05-07T11:24:25;17.50;54.10
47532;DHT22;33273;52.254;7.988;2023-05-07T11:26:58;17.50;53.60
47532;DHT22;33273;52.254;7.988;2023-05-07T11:29:26;17.30;54.10
47532;DHT22;33273;52.254;7.988;2023-05-07T11:32:05;17.10;54.30
47532;DHT22;33273;52.254;7.988;2023-05-07T11:34:38;17.10;54.70
47532;DHT22;33273;52.254;7.988;2023-05-07T11:37:05;17.20;55.90
47532;DHT22;33273;52.254;7.988;2023-05-07T11:39:43;17.40;55.30
47532;DHT22;33273;52.254;7.988;2023-05-07T11:42:29;17.30;54.80
47532;DHT22;33273;52.254;7.988;2023-05-07T11:44:58;17.40;54.10
47532;DHT22;33273;52.254;7.988;2023-05-07T11:47:24;17.40;54.50
47532;DHT22;33273;52.254;7.988;2023-05-07T11:49:52;17.50;56.00
47532;DHT22;33273;52.254;7.988;2023-05-07T11:52:20;17.60;54.30
47532;DHT22;33273;52.254;7.988;2023-05-07T11:54:53;17.70;53.90
47532;DHT22;33273;52.254;7.988;2023-05-07T11:57:26;17.90;55.00
47532;DHT22;33273;52.254;7.988;2023-05-07T11:59:56;18.00;51.90
47532;DHT22;33273;52.254;7.988;2023-05-07T12:02:23;18.00;52.80
47532;DHT22;33273;52.254;7.988;2023-05-07T12:04:51;18.00;53.30
47532;DHT22;33273;52.254;7.988;2023-05-07T12:07:17;18.20;52.40
47532;DHT22;33273;52.254;7.988;2023-05-07T12:09:44;18.20;52.30
47532;DHT22;33273;52.254;7.988;2023-05-07T12:12:10;18.20;53.60
47532;DHT22;33273;52.254;7.988;2023-05-07T12:14:44;18.10;53.50
47532;DHT22;33273;52.254;7.988;2023-05-07T12:17:11;18.20;52.00
47532;DHT22;33273;52.254;7.988;2023-05-07T12:19:39;18.30;53.50
47532;DHT22;33273;52.254;7.988;2023-05-07T12:22:08;18.40;52.90
47532;DHT22;33273;52.254;7.988;2023-05-07T12:24:56;18.70;52.20
47532;DHT22;33273;52.254;7.988;2023-05-07T12:27:22;18.80;52.80
47532;DHT22;33273;52.254;7.988;2023-05-07T12:29:50;18.70;49.50
47532;DHT22;33273;52.254;7.988;2023-05-07T12:32:17;18.80;50.10
47532;DHT22;33273;52.254;7.988;2023-05-07T12:34:44;18.60;51.50
47532;DHT22;33273;52.254;7.988;2023-05-07T12:37:09;18.70;50.30
47532;DHT22;33273;52.254;7.988;2023-05-07T12:39:36;18.60;52.30
47532;DHT22;33273;52.254;7.988;2023-05-07T12:42:01;18.60;50.70
47532;DHT22;33273;52.254;7.988;2023-05-07T12:44:31;18.60;50.60
47532;DHT22;33273;52.254;7.988;2023-05-07T12:47:00;18.40;50.50
47532;DHT22;33273;52.254;7.988;2023-05-07T12:49:27;18.30;53.40
47532;DHT22;33273;52.254;7.988;2023-05-07T12:51:54;18.30;51.50
47532;DHT22;33273;52.254;7.988;2023-05-07T12:54:31;18.30;51.00
47532;DHT22;33273;52.254;7.988;2023-05-07T12:57:09;18.40;51.20
47532;DHT22;33273;52.254;7.988;2023-05-07T12:59:40;18.40;51.10
47532;DHT22;33273;52.254;7.988;2023-05-07T13:02:08;18.40;51.60
47532;DHT22;33273;52.254;7.988;2023-05-07T13:04:36;18.50;51.60
47532;DHT22;33273;52.254;7.988;2023-05-07T13:07:03;18.50;51.20
47532;DHT22;33273;52.254;7.988;2023-05-07T13:09:30;18.50;51.40
47532;DHT22;33273;52.254;7.988;2023-05-07T13:11:57;18.70;52.40
47532;DHT22;33273;52.254;7.988;2023-05-07T13:14:25;18.60;50.50
47532;DHT22;33273;52.254;7.988;2023-05-07T13:16:51;18.70;50.90
47532;DHT22;33273;52.254;7.988;2023-05-07T13:19:18;18.90;50.40
47532;DHT22;33273;52.254;7.988;2023-05-07T13:21:43;18.90;49.60
47532;DHT22;33273;52.254;7.988;2023-05-07T13:24:09;18.80;50.10
47532;DHT22;33273;52.254;7.988;2023-05-07T13:26:35;18.60;49.60
47532;DHT22;33273;52.254;7.988;2023-05-07T13:29:01;18.70;49.40
47532;DHT22;33273;52.254;7.988;2023-05-07T13:31:27;18.50;49.90
47532;DHT22;33273;52.254;7.988;2023-05-07T13:33:53;18.40;50.80
47532;DHT22;33273;52.254;7.988;2023-05-07T13:36:19;18.40;51.20
47532;DHT22;33273;52.254;7.988;2023-05-07T13:38:45;18.40;50.60
47532;DHT22;33273;52.254;7.988;2023-05-07T13:41:12;18.60;51.60
47532;DHT22;33273;52.254;7.988;2023-05-07T13:43:38;18.40;51.50
47532;DHT22;33273;52.254;7.988;2023-05-07T13:46:04;18.50;50.70
47532;DHT22;33273;52.254;7.988;2023-05-07T13:48:30;18.50;52.30
47532;DHT22;33273;52.254;7.988;2023-05-07T13:50:56;18.50;50.40
47532;DHT22;33273;52.254;7.988;2023-05-07T13:53:22;18.50;50.70
47532;DHT22;33273;52.254;7.988;2023-05-07T13:55:47;18.40;51.20
47532;DHT22;33273;52.254;7.988;2023-05-07T13:58:13;18.30;50.70
47532;DHT22;33273;52.254;7.988;2023-05-07T14:00:39;18.30;51.30
47532;DHT22;33273;52.254;7.988;2023-05-07T14:03:05;18.30;50.70
47532;DHT22;33273;52.254;7.988;2023-05-07T14:05:31;18.20;51.00
47532;DHT22;33273;52.254;7.988;2023-05-07T14:07:57;18.10;51.00
47532;DHT22;33273;52.254;7.988;2023-05-07T14:10:24;18.20;50.90
47532;DHT22;33273;52.254;7.988;2023-05-07T14:12:50;18.20;51.20
47532;DHT22;33273;52.254;7.988;2023-05-07T14:15:16;18.20;51.20
47532;DHT22;33273;52.254;7.988;2023-05-07T14:17:43;18.20;50.90
47532;DHT22;33273;52.254;7.988;2023-05-07T14:20:11;18.20;50.60
47532;DHT22;33273;52.254;7.988;2023-05-07T14:22:37;18.10;50.50
47532;DHT22;33273;52.254;7.988;2023-05-07T14:25:03;18.00;50.60
47532;DHT22;33273;52.254;7.988;2023-05-07T14:27:29;17.90;51.80
47532;DHT22;33273;52.254;7.988;2023-05-07T14:29:54;17.80;52.70
47532;DHT22;33273;52.254;7.988;2023-05-07T14:32:21;17.90;52.50
47532;DHT22;33273;52.254;7.988;2023-05-07T14:34:48;18.00;52.10
47532;DHT22;33273;52.254;7.988;2023-05-07T14:37:16;18.00;51.60
47532;DHT22;33273;52.254;7.988;2023-05-07T14:39:41;17.90;52.40
47532;DHT22;33273;52.254;7.988;2023-05-07T14:42:07;17.80;51.50
47532;DHT22;33273;52.254;7.988;2023-05-07T14:44:35;17.70;52.20
47532;DHT22;33273;52.254;7.988;2023-05-07T14:47:01;17.60;53.10
47532;DHT22;33273;52.254;7.988;2023-05-07T14:49:27;17.70;53.40
47532;DHT22;33273;52.254;7.988;2023-05-07T14:51:53;17.70;53.00
47532;DHT22;33273;52.254;7.988;2023-05-07T14:54:19;17.60;52.70
47532;DHT22;33273;52.254;7.988;2023-05-07T14:56:45;17.70;52.60
47532;DHT22;33273;52.254;7.988;2023-05-07T14:59:13;17.60;51.90
47532;DHT22;33273;52.254;7.988;2023-05-07T15:01:39;17.60;52.80
47532;DHT22;33273;52.254;7.988;2023-05-07T15:04:08;17.50;52.90
47532;DHT22;33273;52.254;7.988;2023-05-07T15:06:34;17.60;53.90
47532;DHT22;33273;52.254;7.988;2023-05-07T15:08:59;17.70;52.90
47532;DHT22;33273;52.254;7.988;2023-05-07T15:11:25;17.70;52.70
47532;DHT22;33273;52.254;7.988;2023-05-07T15:13:52;17.80;52.70
47532;DHT22;33273;52.254;7.988;2023-05-07T15:16:18;17.70;52.30
47532;DHT22;33273;52.254;7.988;2023-05-07T15:18:44;17.80;51.90
47532;DHT22;33273;52.254;7.988;2023-05-07T15:21:10;17.70;52.80
47532;DHT22;33273;52.254;7.988;2023-05-07T15:23:36;17.70;52.10
47532;DHT22;33273;52.254;7.988;2023-05-07T15:26:01;17.70;53.00
47532;DHT22;33273;52.254;7.988;2023-05-07T15:28:28;17.70;53.00
47532;DHT22;33273;52.254;7.988;2023-05-07T15:30:56;17.70;54.00
47532;DHT22;33273;52.254;7.988;2023-05-07T15:33:23;17.80;53.90
47532;DHT22;33273;52.254;7.988;2023-05-07T15:35:48;17.70;53.00
47532;DHT22;33273;52.254;7.988;2023-05-07T15:38:14;17.70;52.70
47532;DHT22;33273;52.254;7.988;2023-05-07T15:40:41;17.80;51.60
47532;DHT22;33273;52.254;7.988;2023-05-07T15:43:08;17.70;52.00